Mackinaw City, MI

1:58 AM EDT on April 26, 2015 (GMT -0400)
Pellston Regional Airport Of Emmet County | | Change Station
CLOSE
Current Station
Airport
Location: Pellston,
Elevation: 719 ft
Nearby Weather Stations

Elev 719 ft 45.57 °N, 84.80 °W | Updated 4 minutes ago

Partly Cloudy
Partly Cloudy
29 °F
Feels Like 24 °F
N
5
Wind Variable Wind from NW

Today
High -- | Low -- °F
--% Chance of Precip.
Yesterday
High -- | Low -- °F
Precip. -- in
6:34 AM 8:39 PM
First Quarter, 52% visible
Pressure 29.98 in
Visibility 10.0 miles
Clouds Clear
Windchill 24 °F
Dew Point 22 °F
Humidity 75%
Rainfall 0.00 in
Snow Depth Not available.
UV 0 out of 12
Pollen 8.80 out of 12
Air Quality Not available.
Flu Activity Regional
METAR KPLN 260554Z AUTO 32004KT 10SM CLR M02/M06 A2995 RMK AO2 SLP150 T10171056 10100 21022 55000

More Conditions Fewer Conditions

Pressure 29.98 in
Visibility 10.0 miles
Clouds Clear
Windchill 24 °F
Dew Point 22 °F
Humidity 75%
Rainfall 0.00 in
Snow Depth Not available.
UV 0 out of 12
Pollen 8.80 out of 12
Air Quality Not available.
Flu Activity Regional
METAR KPLN 260554Z AUTO 32004KT 10SM CLR M02/M06 A2995 RMK AO2 SLP150 T10171056 10100 21022 55000

More Conditions Fewer Conditions

The full scope of the disaster following a powerful 7.8-magnitude earthquake in Nepal may not come into view for days, but global charities are already sending emergency aid. Click to see how you can help.
Nowcast | as of 1:00 am EDT on April 26, 2015

At 2 am...mostly clear. Temperature 36. North winds 6 mph. At 4 am...partly cloudy. Temperature 34. Northeast winds 5 mph. At 6 am...partly cloudy. Temperature 32. Light winds. At 8 am...partly cloudy. Temperature 35. Light winds.

×

10-Day Weather Forecast

Almanac

Astronomy

Apr. 26, 2015 Rise Set
Actual Time
Civil Twilight
Nautical Twilight
Astronomical Twilight
Moon
Length of Visible Light
Length of Day
Tomorrow will be .
, % of the Moon is Illuminated

Today's Extremes

State Highs State Lows

Community

WunderPhotos

Upload Photos

1,816,946 photos uploaded!

WunderBlogs® & News

Nearby

Air Quality

  Air Quality AQ Index Pollutant
Not available.

Snow Depth

Station Depth Elevation

Earthquake Activity

City Distance Mag. Time & Date
Minimum magnitude displayed is 2.5.

Coastal Water Temperatures

Place Temperature

Stations

Nearby Weather Stations

Station Location Temp. Windchill Dew Point Humidity Wind Precip. Elev Updated Type